sensor_id;sensor_type;location;lat;lon;timestamp;P1;durP1;ratioP1;P2;durP2;ratioP2
20828;SDS011;10575;50.124;8.582;2022-12-20T00:01:39;68.78;;;34.30;;
20828;SDS011;10575;50.124;8.582;2022-12-20T00:04:05;73.95;;;34.53;;
20828;SDS011;10575;50.124;8.582;2022-12-20T00:06:30;78.25;;;34.70;;
20828;SDS011;10575;50.124;8.582;2022-12-20T00:08:59;73.88;;;34.22;;
20828;SDS011;10575;50.124;8.582;2022-12-20T00:11:26;73.32;;;35.00;;
20828;SDS011;10575;50.124;8.582;2022-12-20T00:13:53;71.18;;;34.10;;
20828;SDS011;10575;50.124;8.582;2022-12-20T00:16:19;73.75;;;33.78;;
20828;SDS011;10575;50.124;8.582;2022-12-20T00:18:46;68.95;;;33.03;;
20828;SDS011;10575;50.124;8.582;2022-12-20T00:21:16;75.50;;;34.97;;
20828;SDS011;10575;50.124;8.582;2022-12-20T00:23:41;76.78;;;34.65;;
20828;SDS011;10575;50.124;8.582;2022-12-20T00:26:11;75.30;;;34.60;;
20828;SDS011;10575;50.124;8.582;2022-12-20T00:28:38;75.93;;;33.70;;
20828;SDS011;10575;50.124;8.582;2022-12-20T00:31:04;79.30;;;35.85;;
20828;SDS011;10575;50.124;8.582;2022-12-20T00:33:31;80.70;;;36.22;;
20828;SDS011;10575;50.124;8.582;2022-12-20T00:35:57;78.45;;;34.38;;
20828;SDS011;10575;50.124;8.582;2022-12-20T00:38:23;75.72;;;34.22;;
20828;SDS011;10575;50.124;8.582;2022-12-20T00:41:02;80.38;;;36.35;;
20828;SDS011;10575;50.124;8.582;2022-12-20T00:43:30;78.18;;;33.65;;
20828;SDS011;10575;50.124;8.582;2022-12-20T00:45:57;76.30;;;34.97;;
20828;SDS011;10575;50.124;8.582;2022-12-20T00:48:23;77.88;;;33.65;;
20828;SDS011;10575;50.124;8.582;2022-12-20T00:50:48;73.32;;;33.90;;
20828;SDS011;10575;50.124;8.582;2022-12-20T00:53:14;77.47;;;37.08;;
20828;SDS011;10575;50.124;8.582;2022-12-20T00:55:40;80.53;;;34.05;;
20828;SDS011;10575;50.124;8.582;2022-12-20T00:58:07;76.72;;;34.92;;
20828;SDS011;10575;50.124;8.582;2022-12-20T01:00:32;81.10;;;35.47;;
20828;SDS011;10575;50.124;8.582;2022-12-20T01:02:58;73.32;;;33.38;;
20828;SDS011;10575;50.124;8.582;2022-12-20T01:05:23;76.07;;;34.42;;
20828;SDS011;10575;50.124;8.582;2022-12-20T01:07:49;77.32;;;35.40;;
20828;SDS011;10575;50.124;8.582;2022-12-20T01:10:15;77.57;;;34.72;;
20828;SDS011;10575;50.124;8.582;2022-12-20T01:12:42;75.55;;;33.58;;
20828;SDS011;10575;50.124;8.582;2022-12-20T01:15:07;78.90;;;35.55;;
20828;SDS011;10575;50.124;8.582;2022-12-20T01:17:33;70.85;;;33.15;;
20828;SDS011;10575;50.124;8.582;2022-12-20T01:19:59;66.68;;;31.85;;
20828;SDS011;10575;50.124;8.582;2022-12-20T01:22:24;74.05;;;33.42;;
20828;SDS011;10575;50.124;8.582;2022-12-20T01:24:50;74.30;;;33.80;;
20828;SDS011;10575;50.124;8.582;2022-12-20T01:27:15;72.28;;;31.55;;
20828;SDS011;10575;50.124;8.582;2022-12-20T01:29:41;68.93;;;31.67;;
20828;SDS011;10575;50.124;8.582;2022-12-20T01:32:06;76.82;;;33.47;;
20828;SDS011;10575;50.124;8.582;2022-12-20T01:34:32;68.78;;;30.58;;
20828;SDS011;10575;50.124;8.582;2022-12-20T01:36:57;76.78;;;33.03;;
20828;SDS011;10575;50.124;8.582;2022-12-20T01:39:23;75.57;;;33.33;;
20828;SDS011;10575;50.124;8.582;2022-12-20T01:41:48;86.45;;;36.47;;
20828;SDS011;10575;50.124;8.582;2022-12-20T01:46:43;83.05;;;34.53;;
20828;SDS011;10575;50.124;8.582;2022-12-20T01:49:11;74.55;;;32.28;;
20828;SDS011;10575;50.124;8.582;2022-12-20T01:54:35;79.82;;;34.33;;
20828;SDS011;10575;50.124;8.582;2022-12-20T01:57:05;75.32;;;32.72;;
20828;SDS011;10575;50.124;8.582;2022-12-20T01:59:36;72.07;;;34.20;;
20828;SDS011;10575;50.124;8.582;2022-12-20T02:02:05;78.18;;;33.70;;
20828;SDS011;10575;50.124;8.582;2022-12-20T02:04:33;75.30;;;33.10;;
20828;SDS011;10575;50.124;8.582;2022-12-20T02:06:59;76.68;;;33.60;;
20828;SDS011;10575;50.124;8.582;2022-12-20T02:09:26;74.15;;;31.30;;
20828;SDS011;10575;50.124;8.582;2022-12-20T02:12:00;71.30;;;33.42;;
20828;SDS011;10575;50.124;8.582;2022-12-20T02:17:37;76.90;;;32.30;;
20828;SDS011;10575;50.124;8.582;2022-12-20T02:20:42;69.13;;;31.30;;
20828;SDS011;10575;50.124;8.582;2022-12-20T02:26:02;69.65;;;30.50;;
20828;SDS011;10575;50.124;8.582;2022-12-20T02:31:38;71.85;;;31.70;;
20828;SDS011;10575;50.124;8.582;2022-12-20T02:34:07;82.80;;;36.70;;
20828;SDS011;10575;50.124;8.582;2022-12-20T02:36:34;70.72;;;31.38;;
20828;SDS011;10575;50.124;8.582;2022-12-20T02:39:00;76.10;;;32.40;;
20828;SDS011;10575;50.124;8.582;2022-12-20T02:41:26;66.68;;;31.25;;
20828;SDS011;10575;50.124;8.582;2022-12-20T02:44:07;84.82;;;37.80;;
20828;SDS011;10575;50.124;8.582;2022-12-20T02:46:54;78.85;;;34.47;;
20828;SDS011;10575;50.124;8.582;2022-12-20T02:49:24;76.55;;;35.20;;
20828;SDS011;10575;50.124;8.582;2022-12-20T02:51:54;84.88;;;35.10;;
20828;SDS011;10575;50.124;8.582;2022-12-20T02:54:22;70.75;;;32.22;;
20828;SDS011;10575;50.124;8.582;2022-12-20T02:56:55;73.63;;;32.67;;
20828;SDS011;10575;50.124;8.582;2022-12-20T02:59:46;72.65;;;30.65;;
20828;SDS011;10575;50.124;8.582;2022-12-20T03:02:25;70.50;;;30.38;;
20828;SDS011;10575;50.124;8.582;2022-12-20T03:04:51;65.15;;;31.60;;
20828;SDS011;10575;50.124;8.582;2022-12-20T03:07:18;62.03;;;30.48;;
20828;SDS011;10575;50.124;8.582;2022-12-20T03:09:45;75.75;;;32.60;;
20828;SDS011;10575;50.124;8.582;2022-12-20T03:12:10;60.17;;;29.40;;
20828;SDS011;10575;50.124;8.582;2022-12-20T03:14:37;67.75;;;29.20;;
20828;SDS011;10575;50.124;8.582;2022-12-20T03:17:04;74.68;;;31.05;;
20828;SDS011;10575;50.124;8.582;2022-12-20T03:19:29;66.05;;;30.30;;
20828;SDS011;10575;50.124;8.582;2022-12-20T03:21:55;71.22;;;30.42;;
20828;SDS011;10575;50.124;8.582;2022-12-20T03:24:21;68.75;;;31.58;;
20828;SDS011;10575;50.124;8.582;2022-12-20T03:26:46;75.22;;;31.40;;
20828;SDS011;10575;50.124;8.582;2022-12-20T03:29:12;65.03;;;29.98;;
20828;SDS011;10575;50.124;8.582;2022-12-20T03:31:38;70.07;;;32.05;;
20828;SDS011;10575;50.124;8.582;2022-12-20T03:34:03;67.75;;;29.95;;
20828;SDS011;10575;50.124;8.582;2022-12-20T03:36:29;67.90;;;31.02;;
20828;SDS011;10575;50.124;8.582;2022-12-20T03:38:55;57.88;;;26.88;;
20828;SDS011;10575;50.124;8.582;2022-12-20T03:41:21;67.22;;;29.48;;
20828;SDS011;10575;50.124;8.582;2022-12-20T03:43:47;65.03;;;28.55;;
20828;SDS011;10575;50.124;8.582;2022-12-20T03:46:13;68.03;;;30.65;;
20828;SDS011;10575;50.124;8.582;2022-12-20T03:48:39;65.65;;;29.55;;
20828;SDS011;10575;50.124;8.582;2022-12-20T03:51:05;71.30;;;30.02;;
20828;SDS011;10575;50.124;8.582;2022-12-20T03:53:30;65.60;;;30.35;;
20828;SDS011;10575;50.124;8.582;2022-12-20T03:55:57;64.68;;;28.98;;
20828;SDS011;10575;50.124;8.582;2022-12-20T03:58:22;60.00;;;26.55;;
20828;SDS011;10575;50.124;8.582;2022-12-20T04:00:48;62.00;;;27.85;;
20828;SDS011;10575;50.124;8.582;2022-12-20T04:03:14;63.10;;;27.10;;
20828;SDS011;10575;50.124;8.582;2022-12-20T04:05:39;62.60;;;28.48;;
20828;SDS011;10575;50.124;8.582;2022-12-20T04:08:05;59.70;;;27.83;;
20828;SDS011;10575;50.124;8.582;2022-12-20T04:10:30;58.28;;;26.77;;
20828;SDS011;10575;50.124;8.582;2022-12-20T04:12:56;55.47;;;26.23;;
20828;SDS011;10575;50.124;8.582;2022-12-20T04:15:21;60.45;;;28.55;;
20828;SDS011;10575;50.124;8.582;2022-12-20T04:17:47;57.92;;;27.85;;
20828;SDS011;10575;50.124;8.582;2022-12-20T04:20:13;61.40;;;27.70;;
20828;SDS011;10575;50.124;8.582;2022-12-20T04:22:44;64.47;;;28.40;;
20828;SDS011;10575;50.124;8.582;2022-12-20T04:25:17;56.17;;;27.05;;
20828;SDS011;10575;50.124;8.582;2022-12-20T04:27:44;61.03;;;27.85;;
20828;SDS011;10575;50.124;8.582;2022-12-20T04:30:11;52.38;;;24.17;;
20828;SDS011;10575;50.124;8.582;2022-12-20T04:32:37;61.08;;;28.42;;
20828;SDS011;10575;50.124;8.582;2022-12-20T04:35:03;69.13;;;29.25;;
20828;SDS011;10575;50.124;8.582;2022-12-20T04:37:29;61.08;;;28.42;;
20828;SDS011;10575;50.124;8.582;2022-12-20T04:39:55;59.88;;;27.67;;
20828;SDS011;10575;50.124;8.582;2022-12-20T04:42:22;61.30;;;27.60;;
20828;SDS011;10575;50.124;8.582;2022-12-20T04:44:48;62.55;;;29.05;;
20828;SDS011;10575;50.124;8.582;2022-12-20T04:47:13;55.10;;;26.33;;
20828;SDS011;10575;50.124;8.582;2022-12-20T04:49:39;56.63;;;27.13;;
20828;SDS011;10575;50.124;8.582;2022-12-20T04:52:04;57.90;;;25.40;;
20828;SDS011;10575;50.124;8.582;2022-12-20T04:54:49;61.65;;;26.48;;
20828;SDS011;10575;50.124;8.582;2022-12-20T04:57:14;64.93;;;28.77;;
20828;SDS011;10575;50.124;8.582;2022-12-20T04:59:40;66.85;;;28.73;;
20828;SDS011;10575;50.124;8.582;2022-12-20T05:02:05;71.07;;;30.88;;
20828;SDS011;10575;50.124;8.582;2022-12-20T05:04:31;73.75;;;31.10;;
20828;SDS011;10575;50.124;8.582;2022-12-20T05:06:56;61.20;;;26.90;;
20828;SDS011;10575;50.124;8.582;2022-12-20T05:09:22;77.75;;;30.80;;
20828;SDS011;10575;50.124;8.582;2022-12-20T05:11:48;74.05;;;31.48;;
20828;SDS011;10575;50.124;8.582;2022-12-20T05:14:13;85.97;;;32.75;;
20828;SDS011;10575;50.124;8.582;2022-12-20T05:16:39;71.15;;;31.05;;
20828;SDS011;10575;50.124;8.582;2022-12-20T05:19:04;65.82;;;29.10;;
20828;SDS011;10575;50.124;8.582;2022-12-20T05:21:30;70.05;;;29.55;;
20828;SDS011;10575;50.124;8.582;2022-12-20T05:24:14;66.05;;;29.60;;
20828;SDS011;10575;50.124;8.582;2022-12-20T05:26:58;66.85;;;28.88;;
20828;SDS011;10575;50.124;8.582;2022-12-20T05:29:24;67.65;;;30.50;;
20828;SDS011;10575;50.124;8.582;2022-12-20T05:31:50;64.95;;;27.40;;
20828;SDS011;10575;50.124;8.582;2022-12-20T05:34:15;60.15;;;27.35;;
20828;SDS011;10575;50.124;8.582;2022-12-20T05:36:41;71.03;;;28.38;;
20828;SDS011;10575;50.124;8.582;2022-12-20T05:39:06;63.65;;;27.50;;
20828;SDS011;10575;50.124;8.582;2022-12-20T05:41:32;60.90;;;27.58;;
20828;SDS011;10575;50.124;8.582;2022-12-20T05:43:57;55.00;;;26.20;;
20828;SDS011;10575;50.124;8.582;2022-12-20T05:46:23;54.35;;;26.00;;
20828;SDS011;10575;50.124;8.582;2022-12-20T05:48:49;64.03;;;28.52;;
20828;SDS011;10575;50.124;8.582;2022-12-20T05:51:14;61.85;;;27.92;;
20828;SDS011;10575;50.124;8.582;2022-12-20T05:53:39;58.70;;;27.17;;
20828;SDS011;10575;50.124;8.582;2022-12-20T05:56:05;60.75;;;27.08;;
20828;SDS011;10575;50.124;8.582;2022-12-20T05:58:31;66.13;;;26.85;;
20828;SDS011;10575;50.124;8.582;2022-12-20T06:01:01;59.88;;;26.80;;
20828;SDS011;10575;50.124;8.582;2022-12-20T06:03:28;60.75;;;26.70;;
20828;SDS011;10575;50.124;8.582;2022-12-20T06:05:53;60.17;;;26.08;;
20828;SDS011;10575;50.124;8.582;2022-12-20T06:08:19;59.75;;;26.13;;
20828;SDS011;10575;50.124;8.582;2022-12-20T06:10:45;59.17;;;27.23;;
20828;SDS011;10575;50.124;8.582;2022-12-20T06:13:12;61.97;;;29.33;;
20828;SDS011;10575;50.124;8.582;2022-12-20T06:15:37;66.68;;;27.63;;
20828;SDS011;10575;50.124;8.582;2022-12-20T06:18:03;63.90;;;27.58;;
20828;SDS011;10575;50.124;8.582;2022-12-20T06:20:30;62.80;;;26.95;;
20828;SDS011;10575;50.124;8.582;2022-12-20T06:22:56;55.85;;;25.45;;
20828;SDS011;10575;50.124;8.582;2022-12-20T06:25:22;71.30;;;28.85;;
20828;SDS011;10575;50.124;8.582;2022-12-20T06:27:47;56.13;;;25.70;;
20828;SDS011;10575;50.124;8.582;2022-12-20T06:30:13;59.05;;;27.60;;
20828;SDS011;10575;50.124;8.582;2022-12-20T06:32:39;65.05;;;26.23;;
20828;SDS011;10575;50.124;8.582;2022-12-20T06:35:05;67.70;;;30.25;;
20828;SDS011;10575;50.124;8.582;2022-12-20T06:37:31;63.83;;;27.80;;
20828;SDS011;10575;50.124;8.582;2022-12-20T06:39:57;77.88;;;30.10;;
20828;SDS011;10575;50.124;8.582;2022-12-20T06:42:23;63.10;;;28.42;;
20828;SDS011;10575;50.124;8.582;2022-12-20T06:44:49;66.07;;;29.30;;
20828;SDS011;10575;50.124;8.582;2022-12-20T06:47:15;65.32;;;28.10;;
20828;SDS011;10575;50.124;8.582;2022-12-20T06:49:40;62.15;;;26.33;;
20828;SDS011;10575;50.124;8.582;2022-12-20T06:52:05;60.60;;;27.40;;
20828;SDS011;10575;50.124;8.582;2022-12-20T06:54:31;54.95;;;25.75;;
20828;SDS011;10575;50.124;8.582;2022-12-20T06:56:56;62.83;;;27.80;;
20828;SDS011;10575;50.124;8.582;2022-12-20T06:59:22;65.30;;;28.90;;
20828;SDS011;10575;50.124;8.582;2022-12-20T07:01:48;61.90;;;28.77;;
20828;SDS011;10575;50.124;8.582;2022-12-20T07:04:13;62.65;;;27.73;;
20828;SDS011;10575;50.124;8.582;2022-12-20T07:06:39;59.95;;;27.65;;
20828;SDS011;10575;50.124;8.582;2022-12-20T07:09:04;62.10;;;27.70;;
20828;SDS011;10575;50.124;8.582;2022-12-20T07:11:30;65.00;;;28.20;;
20828;SDS011;10575;50.124;8.582;2022-12-20T07:13:56;65.60;;;28.65;;
20828;SDS011;10575;50.124;8.582;2022-12-20T07:16:22;69.85;;;27.10;;
20828;SDS011;10575;50.124;8.582;2022-12-20T07:18:48;61.55;;;27.38;;
20828;SDS011;10575;50.124;8.582;2022-12-20T07:21:14;58.15;;;26.73;;
20828;SDS011;10575;50.124;8.582;2022-12-20T07:23:41;73.07;;;31.77;;
20828;SDS011;10575;50.124;8.582;2022-12-20T07:26:07;60.15;;;27.77;;
20828;SDS011;10575;50.124;8.582;2022-12-20T07:28:34;56.10;;;27.92;;
20828;SDS011;10575;50.124;8.582;2022-12-20T07:31:00;58.80;;;26.38;;
20828;SDS011;10575;50.124;8.582;2022-12-20T07:33:26;64.15;;;28.77;;
20828;SDS011;10575;50.124;8.582;2022-12-20T07:35:58;62.75;;;27.75;;
20828;SDS011;10575;50.124;8.582;2022-12-20T07:38:28;57.78;;;26.85;;
20828;SDS011;10575;50.124;8.582;2022-12-20T07:40:54;62.03;;;27.23;;
20828;SDS011;10575;50.124;8.582;2022-12-20T07:43:19;64.15;;;27.27;;
20828;SDS011;10575;50.124;8.582;2022-12-20T07:45:45;63.58;;;28.95;;
20828;SDS011;10575;50.124;8.582;2022-12-20T07:48:11;59.95;;;28.05;;
20828;SDS011;10575;50.124;8.582;2022-12-20T07:50:37;69.07;;;29.65;;
20828;SDS011;10575;50.124;8.582;2022-12-20T07:53:04;61.38;;;27.70;;
20828;SDS011;10575;50.124;8.582;2022-12-20T07:55:30;66.90;;;29.15;;
20828;SDS011;10575;50.124;8.582;2022-12-20T07:57:59;74.72;;;33.95;;
20828;SDS011;10575;50.124;8.582;2022-12-20T08:00:29;67.55;;;32.85;;
20828;SDS011;10575;50.124;8.582;2022-12-20T08:03:06;64.72;;;30.85;;
20828;SDS011;10575;50.124;8.582;2022-12-20T08:05:36;67.75;;;29.08;;
20828;SDS011;10575;50.124;8.582;2022-12-20T08:08:05;65.20;;;28.35;;
20828;SDS011;10575;50.124;8.582;2022-12-20T08:10:32;61.63;;;26.77;;
20828;SDS011;10575;50.124;8.582;2022-12-20T08:12:58;68.68;;;30.02;;
20828;SDS011;10575;50.124;8.582;2022-12-20T08:15:24;64.43;;;29.58;;
20828;SDS011;10575;50.124;8.582;2022-12-20T08:17:50;57.40;;;25.85;;
20828;SDS011;10575;50.124;8.582;2022-12-20T08:20:15;55.72;;;26.45;;
20828;SDS011;10575;50.124;8.582;2022-12-20T08:22:41;67.05;;;29.52;;
20828;SDS011;10575;50.124;8.582;2022-12-20T08:25:07;59.20;;;28.95;;
20828;SDS011;10575;50.124;8.582;2022-12-20T08:27:33;65.32;;;30.83;;
20828;SDS011;10575;50.124;8.582;2022-12-20T08:29:59;69.07;;;32.88;;
20828;SDS011;10575;50.124;8.582;2022-12-20T08:32:24;76.65;;;35.60;;
20828;SDS011;10575;50.124;8.582;2022-12-20T08:34:51;70.65;;;32.17;;
20828;SDS011;10575;50.124;8.582;2022-12-20T08:37:17;63.30;;;29.65;;
20828;SDS011;10575;50.124;8.582;2022-12-20T08:39:42;63.92;;;29.00;;
20828;SDS011;10575;50.124;8.582;2022-12-20T08:42:08;62.13;;;29.30;;
20828;SDS011;10575;50.124;8.582;2022-12-20T08:44:34;55.75;;;27.23;;
20828;SDS011;10575;50.124;8.582;2022-12-20T08:46:59;53.40;;;26.05;;
20828;SDS011;10575;50.124;8.582;2022-12-20T08:49:25;63.85;;;28.50;;
20828;SDS011;10575;50.124;8.582;2022-12-20T08:51:51;60.95;;;30.38;;
20828;SDS011;10575;50.124;8.582;2022-12-20T08:54:16;59.20;;;29.40;;
20828;SDS011;10575;50.124;8.582;2022-12-20T08:56:42;59.30;;;29.58;;
20828;SDS011;10575;50.124;8.582;2022-12-20T08:59:07;63.22;;;29.15;;
20828;SDS011;10575;50.124;8.582;2022-12-20T09:01:33;70.78;;;33.75;;
20828;SDS011;10575;50.124;8.582;2022-12-20T09:03:58;61.10;;;32.72;;
20828;SDS011;10575;50.124;8.582;2022-12-20T09:06:24;64.20;;;27.80;;
20828;SDS011;10575;50.124;8.582;2022-12-20T09:08:50;49.17;;;25.10;;
20828;SDS011;10575;50.124;8.582;2022-12-20T09:11:21;50.53;;;23.73;;
20828;SDS011;10575;50.124;8.582;2022-12-20T09:13:51;52.95;;;25.85;;
20828;SDS011;10575;50.124;8.582;2022-12-20T09:16:19;54.25;;;26.10;;
20828;SDS011;10575;50.124;8.582;2022-12-20T09:18:47;54.33;;;24.98;;
20828;SDS011;10575;50.124;8.582;2022-12-20T09:21:17;56.10;;;27.40;;
20828;SDS011;10575;50.124;8.582;2022-12-20T09:23:43;53.83;;;26.17;;
20828;SDS011;10575;50.124;8.582;2022-12-20T09:26:10;53.53;;;25.85;;
20828;SDS011;10575;50.124;8.582;2022-12-20T09:28:37;52.95;;;25.35;;
20828;SDS011;10575;50.124;8.582;2022-12-20T09:31:05;54.85;;;25.02;;
20828;SDS011;10575;50.124;8.582;2022-12-20T09:33:33;54.05;;;26.42;;
20828;SDS011;10575;50.124;8.582;2022-12-20T09:35:59;57.03;;;27.23;;
20828;SDS011;10575;50.124;8.582;2022-12-20T09:38:26;54.35;;;27.02;;
20828;SDS011;10575;50.124;8.582;2022-12-20T09:40:53;57.65;;;27.98;;
20828;SDS011;10575;50.124;8.582;2022-12-20T09:43:22;52.72;;;26.95;;
20828;SDS011;10575;50.124;8.582;2022-12-20T09:45:56;55.47;;;27.60;;
20828;SDS011;10575;50.124;8.582;2022-12-20T09:48:34;59.47;;;27.38;;
20828;SDS011;10575;50.124;8.582;2022-12-20T09:56:31;50.53;;;25.63;;
20828;SDS011;10575;50.124;8.582;2022-12-20T09:59:10;58.83;;;28.85;;
20828;SDS011;10575;50.124;8.582;2022-12-20T10:01:42;57.25;;;26.73;;
20828;SDS011;10575;50.124;8.582;2022-12-20T10:04:30;52.42;;;27.17;;
20828;SDS011;10575;50.124;8.582;2022-12-20T10:07:02;50.85;;;25.25;;
20828;SDS011;10575;50.124;8.582;2022-12-20T10:10:00;53.15;;;27.95;;
20828;SDS011;10575;50.124;8.582;2022-12-20T10:15:35;48.83;;;25.40;;
20828;SDS011;10575;50.124;8.582;2022-12-20T10:24:19;64.40;;;30.45;;
20828;SDS011;10575;50.124;8.582;2022-12-20T10:27:14;56.88;;;27.27;;
20828;SDS011;10575;50.124;8.582;2022-12-20T10:29:44;57.28;;;27.38;;
20828;SDS011;10575;50.124;8.582;2022-12-20T10:32:13;49.47;;;25.55;;
20828;SDS011;10575;50.124;8.582;2022-12-20T10:34:46;54.58;;;27.65;;
20828;SDS011;10575;50.124;8.582;2022-12-20T10:37:20;55.97;;;28.50;;
20828;SDS011;10575;50.124;8.582;2022-12-20T10:39:47;58.72;;;28.15;;
20828;SDS011;10575;50.124;8.582;2022-12-20T10:45:24;53.70;;;27.27;;
20828;SDS011;10575;50.124;8.582;2022-12-20T10:47:57;54.60;;;27.55;;
20828;SDS011;10575;50.124;8.582;2022-12-20T10:50:24;52.42;;;27.58;;
20828;SDS011;10575;50.124;8.582;2022-12-20T10:53:20;62.65;;;28.52;;
20828;SDS011;10575;50.124;8.582;2022-12-20T10:55:46;67.05;;;29.42;;
20828;SDS011;10575;50.124;8.582;2022-12-20T10:58:14;59.05;;;28.67;;
20828;SDS011;10575;50.124;8.582;2022-12-20T11:01:02;58.22;;;28.40;;
20828;SDS011;10575;50.124;8.582;2022-12-20T11:03:28;65.18;;;31.15;;
20828;SDS011;10575;50.124;8.582;2022-12-20T11:05:59;71.03;;;33.08;;
20828;SDS011;10575;50.124;8.582;2022-12-20T11:08:41;69.03;;;31.98;;
20828;SDS011;10575;50.124;8.582;2022-12-20T11:13:48;86.05;;;40.70;;
20828;SDS011;10575;50.124;8.582;2022-12-20T11:21:53;68.25;;;33.13;;
20828;SDS011;10575;50.124;8.582;2022-12-20T11:24:44;65.22;;;33.65;;
20828;SDS011;10575;50.124;8.582;2022-12-20T11:30:10;73.30;;;34.80;;
20828;SDS011;10575;50.124;8.582;2022-12-20T11:35:36;65.78;;;33.15;;
20828;SDS011;10575;50.124;8.582;2022-12-20T11:47:16;61.42;;;32.30;;
20828;SDS011;10575;50.124;8.582;2022-12-20T11:50:03;61.95;;;31.80;;
20828;SDS011;10575;50.124;8.582;2022-12-20T11:52:49;62.50;;;32.72;;
20828;SDS011;10575;50.124;8.582;2022-12-20T11:55:20;55.58;;;30.48;;
20828;SDS011;10575;50.124;8.582;2022-12-20T12:00:41;63.40;;;31.80;;
20828;SDS011;10575;50.124;8.582;2022-12-20T12:03:15;58.38;;;29.33;;
20828;SDS011;10575;50.124;8.582;2022-12-20T12:05:50;54.20;;;29.52;;
20828;SDS011;10575;50.124;8.582;2022-12-20T12:08:20;50.40;;;28.70;;
20828;SDS011;10575;50.124;8.582;2022-12-20T12:10:59;53.38;;;27.15;;
20828;SDS011;10575;50.124;8.582;2022-12-20T12:13:30;60.38;;;29.67;;
20828;SDS011;10575;50.124;8.582;2022-12-20T12:16:07;54.95;;;26.65;;
20828;SDS011;10575;50.124;8.582;2022-12-20T12:18:43;59.22;;;30.27;;
20828;SDS011;10575;50.124;8.582;2022-12-20T12:21:12;58.20;;;29.08;;
20828;SDS011;10575;50.124;8.582;2022-12-20T12:26:27;63.20;;;30.23;;
20828;SDS011;10575;50.124;8.582;2022-12-20T12:28:57;57.15;;;29.67;;
20828;SDS011;10575;50.124;8.582;2022-12-20T12:31:27;69.90;;;33.97;;
20828;SDS011;10575;50.124;8.582;2022-12-20T12:34:03;55.30;;;29.95;;
20828;SDS011;10575;50.124;8.582;2022-12-20T12:36:44;58.10;;;29.50;;
20828;SDS011;10575;50.124;8.582;2022-12-20T12:45:14;44.75;;;25.25;;
20828;SDS011;10575;50.124;8.582;2022-12-20T12:48:24;63.35;;;30.42;;
20828;SDS011;10575;50.124;8.582;2022-12-20T12:50:58;53.40;;;27.88;;
20828;SDS011;10575;50.124;8.582;2022-12-20T12:53:37;57.72;;;30.75;;
20828;SDS011;10575;50.124;8.582;2022-12-20T13:01:46;51.63;;;27.02;;
20828;SDS011;10575;50.124;8.582;2022-12-20T13:11:51;62.55;;;31.85;;
20828;SDS011;10575;50.124;8.582;2022-12-20T13:19:48;54.05;;;28.10;;
20828;SDS011;10575;50.124;8.582;2022-12-20T13:41:00;56.08;;;25.73;;
20828;SDS011;10575;50.124;8.582;2022-12-20T13:43:43;49.20;;;27.73;;
20828;SDS011;10575;50.124;8.582;2022-12-20T13:48:39;47.67;;;25.50;;
20828;SDS011;10575;50.124;8.582;2022-12-20T13:51:18;53.85;;;27.38;;
20828;SDS011;10575;50.124;8.582;2022-12-20T13:53:52;48.58;;;24.90;;
20828;SDS011;10575;50.124;8.582;2022-12-20T13:58:56;53.25;;;26.80;;
20828;SDS011;10575;50.124;8.582;2022-12-20T14:01:28;47.35;;;23.65;;
20828;SDS011;10575;50.124;8.582;2022-12-20T14:03:55;42.28;;;24.17;;
20828;SDS011;10575;50.124;8.582;2022-12-20T14:06:21;46.85;;;24.73;;
20828;SDS011;10575;50.124;8.582;2022-12-20T14:08:49;43.97;;;24.33;;
20828;SDS011;10575;50.124;8.582;2022-12-20T14:11:17;46.60;;;24.45;;
20828;SDS011;10575;50.124;8.582;2022-12-20T14:13:59;57.20;;;27.83;;
20828;SDS011;10575;50.124;8.582;2022-12-20T14:16:27;46.55;;;24.27;;
20828;SDS011;10575;50.124;8.582;2022-12-20T14:19:05;50.67;;;25.58;;
20828;SDS011;10575;50.124;8.582;2022-12-20T14:21:38;50.83;;;25.23;;
20828;SDS011;10575;50.124;8.582;2022-12-20T14:24:07;51.92;;;26.85;;
20828;SDS011;10575;50.124;8.582;2022-12-20T14:26:44;50.85;;;27.63;;
20828;SDS011;10575;50.124;8.582;2022-12-20T14:29:14;46.95;;;24.20;;
20828;SDS011;10575;50.124;8.582;2022-12-20T14:31:43;46.13;;;23.80;;
20828;SDS011;10575;50.124;8.582;2022-12-20T14:34:11;45.50;;;23.88;;
20828;SDS011;10575;50.124;8.582;2022-12-20T14:36:46;41.13;;;23.13;;
20828;SDS011;10575;50.124;8.582;2022-12-20T14:39:20;40.85;;;22.83;;
20828;SDS011;10575;50.124;8.582;2022-12-20T14:41:55;43.50;;;24.02;;
20828;SDS011;10575;50.124;8.582;2022-12-20T14:44:24;44.10;;;22.65;;
20828;SDS011;10575;50.124;8.582;2022-12-20T14:46:55;44.50;;;23.38;;
20828;SDS011;10575;50.124;8.582;2022-12-20T14:49:29;43.08;;;23.38;;
20828;SDS011;10575;50.124;8.582;2022-12-20T14:52:04;50.38;;;25.95;;
20828;SDS011;10575;50.124;8.582;2022-12-20T14:54:41;42.03;;;22.65;;
20828;SDS011;10575;50.124;8.582;2022-12-20T14:57:28;43.15;;;24.65;;
20828;SDS011;10575;50.124;8.582;2022-12-20T15:00:12;51.53;;;26.17;;
20828;SDS011;10575;50.124;8.582;2022-12-20T15:02:45;57.70;;;28.38;;
20828;SDS011;10575;50.124;8.582;2022-12-20T15:05:35;56.10;;;28.77;;
20828;SDS011;10575;50.124;8.582;2022-12-20T15:08:16;53.47;;;28.08;;
20828;SDS011;10575;50.124;8.582;2022-12-20T15:10:47;73.25;;;36.17;;
20828;SDS011;10575;50.124;8.582;2022-12-20T15:13:32;59.67;;;30.90;;
20828;SDS011;10575;50.124;8.582;2022-12-20T15:18:44;48.75;;;26.95;;
20828;SDS011;10575;50.124;8.582;2022-12-20T15:24:11;72.88;;;35.35;;
20828;SDS011;10575;50.124;8.582;2022-12-20T15:26:38;69.45;;;34.60;;
20828;SDS011;10575;50.124;8.582;2022-12-20T15:29:04;63.33;;;31.15;;
20828;SDS011;10575;50.124;8.582;2022-12-20T15:31:31;65.90;;;31.20;;
20828;SDS011;10575;50.124;8.582;2022-12-20T15:33:59;74.82;;;36.05;;
20828;SDS011;10575;50.124;8.582;2022-12-20T15:36:28;67.57;;;33.40;;
20828;SDS011;10575;50.124;8.582;2022-12-20T15:38:55;57.15;;;27.50;;
20828;SDS011;10575;50.124;8.582;2022-12-20T15:41:22;50.78;;;26.23;;
20828;SDS011;10575;50.124;8.582;2022-12-20T15:43:55;51.70;;;28.45;;
20828;SDS011;10575;50.124;8.582;2022-12-20T15:46:25;49.63;;;26.90;;
20828;SDS011;10575;50.124;8.582;2022-12-20T15:48:51;57.13;;;26.88;;
20828;SDS011;10575;50.124;8.582;2022-12-20T15:51:23;48.80;;;28.15;;
20828;SDS011;10575;50.124;8.582;2022-12-20T15:53:52;56.72;;;28.50;;
20828;SDS011;10575;50.124;8.582;2022-12-20T15:56:19;53.63;;;27.95;;
20828;SDS011;10575;50.124;8.582;2022-12-20T15:58:46;50.63;;;26.65;;
20828;SDS011;10575;50.124;8.582;2022-12-20T16:01:14;50.22;;;26.02;;
20828;SDS011;10575;50.124;8.582;2022-12-20T16:03:51;48.38;;;26.50;;
20828;SDS011;10575;50.124;8.582;2022-12-20T16:06:16;53.22;;;25.83;;
20828;SDS011;10575;50.124;8.582;2022-12-20T16:08:42;49.63;;;27.58;;
20828;SDS011;10575;50.124;8.582;2022-12-20T16:11:22;48.92;;;26.98;;
20828;SDS011;10575;50.124;8.582;2022-12-20T16:13:52;50.20;;;26.90;;
20828;SDS011;10575;50.124;8.582;2022-12-20T16:16:19;47.78;;;26.10;;
20828;SDS011;10575;50.124;8.582;2022-12-20T16:18:46;50.60;;;26.10;;
20828;SDS011;10575;50.124;8.582;2022-12-20T16:21:16;52.05;;;25.48;;
20828;SDS011;10575;50.124;8.582;2022-12-20T16:23:44;48.38;;;24.75;;
20828;SDS011;10575;50.124;8.582;2022-12-20T16:26:11;49.05;;;25.33;;
20828;SDS011;10575;50.124;8.582;2022-12-20T16:28:38;51.60;;;26.95;;